Tiempo atmosférico en la estación meteorológica de Pontons, Barcelona (630 m.)



Fecha
DESCASC
Temp. máxima en grados centígrados (hora)
DESCASC
Temp. mínima en grados centígrados (hora)
DESCASC
Temp. media en grados centígrados
DESCASC
Racha de viento máxima en m/sg (hora)
DESCASC
Velocidad máxima media en intervalos de 10 minutos(hora)
DESCASC
Precipitaciones diarias en mm
DESCASC
Precipitaciones de 00:00 a 06:00 en mm
DESCASC
Precipitaciones de 06:00 a 12:00 en mm
DESCASC
Precipitaciones de 12:00 a 18:00 en mm
DESCASC
Precipitaciones de 18:00 a 24:00 en mm
DESCASC
05-04-2020 15.7 (15:30) 1.4 (07:40) 8.5 8.33 (13:40) 4.72 (12:50) 0 0 0 0 0
04-04-2020 15.3 (15:50) 2.4 (07:30) 8.9 9.72 (16:00) 6.67 (16:20) 0 0 0 0 0
03-04-2020 14 (15:00) 4.1 (23:50) 9 9.17 (16:40) 6.11 (17:40) 0 0 0 0 0
02-04-2020 12.1 (15:00) 5.3 (00:00) 8.7 6.67 (09:00) 4.44 (09:00) 0 0 0 0 0
01-04-2020 7.7 (03:00) 5.6 (00:00) 6.6 14.44 (08:50) 8.61 (13:00) 15.2 2.4 3.8 8.2 0.8
31-03-2020 8.5 (13:10) 3.1 (00:00) 5.8 12.22 (12:50) 7.5 (12:00) 5.4 0.2 0.4 4.4 0.4
30-03-2020 7.3 (11:20) 2.1 (00:00) 4.7 9.17 (15:40) 4.44 (12:10) 2.8 0 0 2.6 0.2
29-03-2020 18.4 (16:50) 6.2 (00:00) 12.3 9.72 (16:30) 4.72 (15:00) 0 0 0 0 0
28-03-2020 15.5 (16:20) 4.8 (00:00) 10.2 7.22 (23:50) 5 (23:50) 0 0 0 0 0
27-03-2020 13.3 (14:30) -2.4 (-00:0) 5.5 8.33 (09:00) 4.72 (10:10) 0.8 0 0 0 0.8
26-03-2020 9.2 (13:10) -0.5 (-00:0) 4.3 10.28 (13:40) 6.94 (13:40) 1.4 0 0 1.4 0
25-03-2020 8.2 (16:10) 0.8 (00:00) 4.5 9.44 (00:10) 5.56 (09:20) 0.4 0 0.4 0 0
24-03-2020 10.6 (12:50) 4.4 (00:00) 7.5 10.28 (00:50) 6.39 (23:30) 0.2 0 0 0 0.2
23-03-2020 11.8 (16:00) 7.5 (00:00) 9.7 10 (21:00) 6.11 (21:50) 0.8 0 0.6 0.2 0
22-03-2020 13.2 (12:20) 3.2 (07:20) 8.2 7.5 (11:20) 4.44 (18:40) 3 0 0 2.6 0.4
21-03-2020 14.8 (15:00) 0.4 (00:00) 7.6 7.5 (11:20) 4.44 (10:40) 0 0 0 0 0
20-03-2020 13.8 (16:00) 2.3 (00:00) 8.1 7.5 (12:00) 4.44 (12:00) 0 0 0 0 0
19-03-2020 14.4 (13:50) 2.7 (00:00) 8.5 6.67 (12:50) 3.89 (12:50) 0 0 0 0 0
18-03-2020 16.2 (16:20) 5 (00:00) 10.6 5 (13:00) 3.06 (12:40) 0 0 0 0 0
17-03-2020 12.4 (15:50) 7.6 (00:00) 10 14.17 (00:40) 8.89 (00:40) 0.4 0.2 0.2 0 0
16-03-2020 9.7 (14:50) 7.7 (00:00) 8.7 13.89 (21:20) 9.17 (21:20) 71.2 0.4 7.6 57.4 5.8
15-03-2020 13.5 (14:40) 2.2 (00:00) 7.9 9.44 (14:00) 5.56 (11:00) 0.6 0 0 0 0.6
14-03-2020 18.1 (16:00) 4.8 (00:00) 11.5 6.94 (07:10) 5 (07:00) 0 0 0 0 0
13-03-2020 17.1 (14:20) 5.5 (05:00) 11.3 8.89 (15:00) 5.56 (14:40) 0 0 0 0 0
12-03-2020 22.8 (15:50) 7.7 (00:00) 15.2 6.11 (11:20) 4.17 (11:30) 0 0 0 0 0
11-03-2020 -- (--) -- (--) -- -- (--) -- (--) -- 0 -- 0 0

Gráficas

Temp. máximas Temp. mínimas Temp. medias Precipitaciones Rachas de viento máximas Velocidades máximas media en intervalos de 10 minutos

Datos horarios

Fecha y hora oficial Temperatura (ºC) Velocidad del viento (km/h) Dirección del viento Racha (km/h) Dirección de racha Precipitación (mm) Presión (hPa) Tendencia (hPa) Humedad (%)
2020-04-09 23:00:00 7 9 Noroeste 10 Noroeste 0 -- -- 59
2020-04-09 22:00:00 7.6 6 Noroeste 10 Noroeste 0 -- -- 60
2020-04-09 21:00:00 9.6 5 Noroeste 10 Sudoeste 0 -- -- 51
2020-04-09 20:00:00 14.3 5 Sudoeste 18 Sudoeste 0 -- -- 32
2020-04-09 19:00:00 16.3 8 Sur 24 Sur 0 -- -- 37
2020-04-09 18:00:00 17.7 8 Sur 28 Sur 0 -- -- 32
2020-04-09 17:00:00 17.8 15 Sur 26 Sudoeste 0 -- -- 33
2020-04-09 16:00:00 17.5 14 Sur 27 Sur 0 -- -- 36
2020-04-09 15:00:00 17.1 14 Sur 26 Sudoeste 0 -- -- 37
2020-04-09 14:00:00 16.8 15 Sudoeste 23 Sur 0 -- -- 46
2020-04-09 13:00:00 17 11 Sur 22 Sudeste 0 -- -- 40
2020-04-09 12:00:00 14.9 12 Sudeste 21 Sudeste 0 -- -- 47
2020-04-09 11:00:00 13.7 8 Sudoeste 17 Sudoeste 0 -- -- 44
2020-04-09 10:00:00 14 6 Sudoeste 10 Oeste 0 -- -- 35
2020-04-09 09:00:00 10.6 5 Noroeste 11 Noroeste 0 -- -- 57
2020-04-09 08:00:00 4.7 9 Noroeste 12 Noroeste 0 -- -- 78
2020-04-09 07:00:00 3.7 9 Noroeste 11 Noroeste 0 -- -- 80
2020-04-09 06:00:00 4.5 8 Noroeste 11 Noroeste 0 -- -- 77
2020-04-09 05:00:00 5.2 6 Noroeste 9 Noroeste 0 -- -- 76
2020-04-09 04:00:00 6.6 6 Noroeste 9 Noroeste 0 -- -- 71
2020-04-09 03:00:00 6.5 6 Noroeste 10 Noroeste 0 -- -- 72
2020-04-09 02:00:00 6.7 6 Noroeste 11 Noroeste 0 -- -- 69
2020-04-09 01:00:00 5.9 8 Noroeste 11 Noroeste 0 -- -- 72
2020-04-09 00:00:00 6.4 6 Noroeste 10 Noroeste 0 -- -- 73
2020-04-08 23:00:00 8.1 6 Noroeste 8 Noroeste 0 -- -- 69
2020-04-08 22:00:00 10.7 6 Noroeste 9 Noroeste 0 -- -- 60
2020-04-08 21:00:00 11.2 0 Calma 11 Sudoeste 0 -- -- 59
2020-04-08 20:00:00 12.7 6 Sudeste 10 Sur 0 -- -- 49
2020-04-08 19:00:00 15.6 5 Sur 15 Sur 0 -- -- 39
2020-04-08 18:00:00 16.8 11 Sur 22 Sur 0 -- -- 33
2020-04-08 17:00:00 16.8 12 Sur 23 Sudeste 0 -- -- 35
2020-04-08 16:00:00 17.5 14 Sur 24 Sur 0 -- -- 35
2020-04-08 15:00:00 16.2 12 Sudoeste 23 Sur 0 -- -- 36
2020-04-08 14:00:00 14.9 15 Sur 24 Sur 0 -- -- 41
2020-04-08 13:00:00 15.8 9 Sur 24 Sudeste 0 -- -- 36
2020-04-08 12:00:00 15.3 13 Sudeste 22 Sudeste 0 -- -- 33
2020-04-08 11:00:00 14.1 9 Sudoeste 18 Sudoeste 0 -- -- 39
2020-04-08 10:00:00 13.1 9 Oeste 13 Oeste 0 -- -- 41
2020-04-08 09:00:00 9 5 Noroeste 10 Noroeste 0 -- -- 50
2020-04-08 08:00:00 4.4 7 Noroeste 11 Noroeste 0 -- -- 65
2020-04-08 07:00:00 3.6 8 Noroeste 12 Noroeste 0 -- -- 69
2020-04-08 06:00:00 4.7 7 Noroeste 9 Noroeste 0 -- -- 65
2020-04-08 05:00:00 6.1 5 Noroeste 8 Noroeste 0 -- -- 69
2020-04-08 04:00:00 6.7 6 Noroeste 8 Noroeste 0 -- -- 63
2020-04-08 03:00:00 7.9 7 Noroeste 10 Noroeste 0 -- -- 52
2020-04-08 02:00:00 6.3 7 Noroeste 11 Noroeste 0 -- -- 67
2020-04-08 01:00:00 5.7 8 Noroeste 14 Noroeste 0 -- -- 66
2020-04-08 00:00:00 6.4 9 Noroeste 12 Noroeste 0 -- -- 65
2020-04-07 23:00:00 6.9 8 Noroeste 12 Noroeste 0 -- -- 71
2020-04-07 22:00:00 8.2 5 Noroeste 9 Noroeste 0 -- -- 70
2020-04-07 21:00:00 9.4 3 Oeste 7 Sudoeste 0 -- -- 69
2020-04-07 20:00:00 11.4 5 Sudoeste 19 Sudoeste 0 -- -- 62
2020-04-07 19:00:00 13.2 8 Sudoeste 18 Sur 0 -- -- 55
2020-04-07 18:00:00 13.2 9 Sudoeste 20 Sudoeste 0 -- -- 55
2020-04-07 17:00:00 15.7 10 Sur 22 Sur 0 -- -- 46
2020-04-07 16:00:00 13 6 Sudeste 17 Sudoeste 0 -- -- 48
2020-04-07 15:00:00 12.6 12 Sudoeste 22 Sudoeste 0 -- -- 55
2020-04-07 14:00:00 13 8 Sudoeste 21 Oeste 0 -- -- 59
2020-04-07 13:00:00 13.7 9 Sur 19 Sur 0 -- -- 57
2020-04-07 12:00:00 12 7 Sur 16 Sur 0 -- -- 71
2020-04-07 11:00:00 10.7 5 Sur 14 Sur 0 -- -- 83
2020-04-07 10:00:00 10.2 5 Sudeste 14 Sur 0 -- -- 84
2020-04-07 09:00:00 9.2 3 Sur 10 Sur 0 -- -- 88
2020-04-07 08:00:00 8.8 3 Sudeste 6 Sudeste 0 -- -- 88
2020-04-07 07:00:00 7.8 0 Calma 3 Noroeste 0 -- -- 87
2020-04-07 06:00:00 7.5 3 Noroeste 4 Oeste 0 -- -- 88
2020-04-07 05:00:00 7.1 3 Noroeste 5 Noroeste 0 -- -- 87
2020-04-07 04:00:00 7.3 2 Noroeste 4 Noroeste 0 -- -- 87
2020-04-07 03:00:00 7.3 2 Oeste 4 Oeste 0 -- -- 86
2020-04-07 02:00:00 7.1 3 Noroeste 5 Noroeste 0 -- -- 86
2020-04-07 01:00:00 7.4 0 Calma 6 Noroeste 0 -- -- 86
2020-04-07 00:00:00 7.5 2 Noroeste 7 Noroeste 0 -- -- 86
2020-04-06 23:00:00 7 5 Oeste 8 Noroeste 0 -- -- 81
2020-04-06 22:00:00 8.1 3 Oeste 7 Oeste 0 -- -- 75
2020-04-06 21:00:00 9.2 4 Oeste 12 Oeste 0 -- -- 69
2020-04-06 20:00:00 10.8 6 Sur 19 Sur 0 -- -- 62
2020-04-06 19:00:00 12 11 Sur 21 Sudoeste 0 -- -- 57
2020-04-06 18:00:00 14.9 10 Sur 23 Sudoeste 0 -- -- 42
2020-04-06 17:00:00 14.7 12 Sur 25 Sur 0 -- -- 41
2020-04-06 16:00:00 14.9 14 Sur 29 Sur 0 -- -- 42
2020-04-06 15:00:00 15.1 14 Sur 27 Sudoeste 0 -- -- 41
2020-04-06 14:00:00 14.6 12 Sudeste 24 Sudeste 0 -- -- 46
2020-04-06 13:00:00 13.9 12 Sur 26 Sudeste 0 -- -- 42
2020-04-06 12:00:00 12.5 13 Sudeste 22 Sudeste 0 -- -- 55
2020-04-06 11:00:00 11.5 8 Sudeste 17 Sudeste 0 -- -- 62
2020-04-06 10:00:00 12.2 5 Sudeste 10 Sudeste 0 -- -- 52
2020-04-06 09:00:00 9 2 Norte 7 Noroeste 0 -- -- 79
2020-04-06 08:00:00 3.7 6 Noroeste 9 Noroeste 0 -- -- 86
2020-04-06 07:00:00 3.6 6 Noroeste 9 Noroeste 0 -- -- 87
2020-04-06 06:00:00 3.7 7 Noroeste 10 Noroeste 0 -- -- 88
2020-04-06 05:00:00 3.7 5 Noroeste 9 Noroeste 0 -- -- 86
2020-04-06 04:00:00 4.7 5 Noroeste 8 Noroeste 0 -- -- 81
2020-04-06 03:00:00 5.1 3 Oeste 8 Noroeste 0 -- -- 75
2020-04-06 02:00:00 4.5 6 Noroeste 9 Noroeste 0 -- -- 77
2020-04-06 01:00:00 3.8 8 Noroeste 10 Noroeste 0 -- -- 77
2020-04-06 00:00:00 4.3 6 Noroeste 11 Noroeste 0 -- -- 75
2020-04-05 23:00:00 4.4 6 Noroeste 10 Noroeste 0 -- -- 78
2020-04-05 22:00:00 5 6 Noroeste 10 Noroeste 0 -- -- 75
2020-04-05 21:00:00 6.7 2 Oeste 8 Sur 0 -- -- 72
2020-04-05 20:00:00 9.8 7 Sur 19 Sur 0 -- -- 59
2020-04-05 19:00:00 13 9 Sur 25 Sudoeste 0 -- -- 47
2020-04-05 18:00:00 14.1 14 Sur 26 Sudoeste 0 -- -- 42
2020-04-05 17:00:00 15.1 13 Sur 28 Sudoeste 0 -- -- 42
2020-04-05 16:00:00 15.4 11 Sudoeste 25 Sudoeste 0 -- -- 38
2020-04-05 15:00:00 14.9 13 Sur 30 Sudoeste 0 -- -- 36
2020-04-05 14:00:00 14.2 12 Sur 30 Sudoeste 0 -- -- 40
2020-04-05 13:00:00 14 11 Sur 28 Sudoeste 0 -- -- 36
2020-04-05 12:00:00 13.2 10 Sur 27 Sudoeste 0 -- -- 30
2020-04-05 11:00:00 12.9 9 Sur 19 Sur 0 -- -- 45
2020-04-05 10:00:00 11.8 6 Sudoeste 12 Sudoeste 0 -- -- 44
2020-04-05 09:00:00 6.5 6 Noroeste 10 Noroeste 0 -- -- 69
2020-04-05 08:00:00 2.5 10 Noroeste 13 Noroeste 0 -- -- 81
2020-04-05 07:00:00 1.8 10 Noroeste 14 Noroeste 0 -- -- 84
2020-04-05 06:00:00 1.9 10 Noroeste 12 Noroeste 0 -- -- 87
2020-04-05 05:00:00 2.4 8 Noroeste 11 Noroeste 0 -- -- 88
2020-04-05 04:00:00 3.4 7 Noroeste 10 Noroeste 0 -- -- 89
2020-04-05 03:00:00 3.2 5 Noroeste 12 Noroeste 0 -- -- 86
2020-04-05 02:00:00 3.6 3 Noroeste 11 Noroeste 0 -- -- 85
2020-04-05 01:00:00 3 7 Noroeste 11 Noroeste 0 -- -- 79
2020-04-05 00:00:00 3.9 7 Noroeste 10 Noroeste 0 -- -- 77
2020-04-04 23:00:00 5.5 7 Noroeste 14 Noroeste 0 -- -- 74
2020-04-04 22:00:00 7.2 9 Noroeste 14 Noroeste 0 -- -- 72
2020-04-04 21:00:00 8.5 8 Oeste 15 Oeste 0 -- -- 68
2020-04-04 20:00:00 11.5 9 Oeste 26 Oeste 0 -- -- 56
2020-04-04 19:00:00 13.4 17 Sudoeste 28 Sudoeste 0 -- -- 46
2020-04-04 18:00:00 14.1 17 Sudoeste 30 Oeste 0 -- -- 43
2020-04-04 17:00:00 15.1 15 Oeste 35 Oeste 0 -- -- 39
2020-04-04 16:00:00 14.7 19 Sudoeste 35 Oeste 0 -- -- 38
2020-04-04 15:00:00 14.5 16 Oeste 31 Oeste 0 -- -- 42
2020-04-04 14:00:00 14.4 14 Sudoeste 30 Sudoeste 0 -- -- 39
2020-04-04 13:00:00 13.3 14 Sudoeste 26 Sudoeste 0 -- -- 46
2020-04-04 12:00:00 13.3 12 Sudoeste 22 Oeste 0 -- -- 43
2020-04-04 11:00:00 13.2 9 Sur 18 Sur 0 -- -- 44
2020-04-04 10:00:00 11.9 8 Oeste 13 Oeste 0 -- -- 48
2020-04-04 09:00:00 7.2 6 Noroeste 12 Noroeste 0 -- -- 78
2020-04-04 08:00:00 3.4 10 Noroeste 12 Noroeste 0 -- -- 87
2020-04-04 07:00:00 2.9 9 Noroeste 11 Noroeste 0 -- -- 88
2020-04-04 06:00:00 3.5 9 Noroeste 13 Noroeste 0 -- -- 87
2020-04-04 05:00:00 3.4 8 Noroeste 10 Noroeste 0 -- -- 89
2020-04-04 04:00:00 3.9 8 Noroeste 10 Noroeste 0 -- -- 86
2020-04-04 03:00:00 4 9 Noroeste 10 Noroeste 0 -- -- 85
2020-04-04 02:00:00 3.4 9 Noroeste 12 Noroeste 0 -- -- 87
2020-04-04 01:00:00 3.8 9 Noroeste 12 Noroeste 0 -- -- 82
2020-04-04 00:00:00 4.7 10 Noroeste 13 Noroeste 0 -- -- 85
2020-04-03 23:00:00 4.8 6 Noroeste 9 Noroeste 0 -- -- 82
2020-04-03 22:00:00 5.5 4 Noroeste 8 Noroeste 0 -- -- 77
2020-04-03 21:00:00 7.1 4 Noroeste 17 Oeste 0 -- -- 70
2020-04-03 20:00:00 10.1 12 Oeste 22 Sudoeste 0 -- -- 57
2020-04-03 19:00:00 12.3 15 Oeste 30 Oeste 0 -- -- 54
2020-04-03 18:00:00 12.5 15 Sudoeste 32 Oeste 0 -- -- 58
2020-04-03 17:00:00 13.1 17 Oeste 33 Sudoeste 0 -- -- 53
2020-04-03 16:00:00 13.5 15 Oeste 30 Oeste 0 -- -- 48
2020-04-03 15:00:00 14 13 Noroeste 24 Oeste 0 -- -- 51
2020-04-03 14:00:00 12.2 11 Oeste 27 Oeste 0 -- -- 57
2020-04-03 13:00:00 10.7 16 Noroeste 27 Noroeste 0 -- -- 62
2020-04-03 12:00:00 9.2 17 Noroeste 32 Noroeste 0 -- -- 69
2020-04-03 11:00:00 9 13 Noroeste 25 Norte 0 -- -- 71
2020-04-03 10:00:00 8.7 10 Noroeste 25 Norte 0 -- -- 74
2020-04-03 09:00:00 7.6 9 Noroeste 26 Norte 0 -- -- 77
2020-04-03 08:00:00 6.4 9 Oeste 23 Noroeste 0 -- -- 84
2020-04-03 07:00:00 6 6 Oeste 14 Oeste 0 -- -- 86
2020-04-03 06:00:00 6.2 5 Oeste 14 Oeste 0 -- -- 87
2020-04-03 05:00:00 5.7 2 Noroeste 10 Noroeste 0 -- -- 89
2020-04-03 04:00:00 6.7 3 Oeste 13 Noroeste 0 -- -- 87
2020-04-03 03:00:00 6.8 6 Noroeste 8 Noroeste 0 -- -- 88
2020-04-03 02:00:00 7 6 Noroeste 10 Noroeste 0 -- -- 88
2020-04-03 01:00:00 7.2 5 Noroeste 10 Noroeste 0 -- -- 87
2020-04-03 00:00:00 7.3 7 Noroeste 12 Oeste 0 -- -- 88
2020-04-02 23:00:00 7.3 6 Noroeste 10 Oeste 0 -- -- 89
2020-04-02 22:00:00 7.1 5 Oeste 16 Noroeste 0 -- -- 90
2020-04-02 21:00:00 7.2 10 Noroeste 19 Oeste 0 -- -- 89
2020-04-02 20:00:00 7.5 8 Oeste 19 Oeste 0 -- -- 88
2020-04-02 19:00:00 8.8 10 Oeste 21 Oeste 0 -- -- 84
2020-04-02 18:00:00 10.9 4 Sudeste 10 Sudeste 0 -- -- 70
2020-04-02 17:00:00 10.2 7 Sudeste 14 Sudeste 0 -- -- 73
2020-04-02 16:00:00 11 7 Sudeste 19 Sudeste 0 -- -- 71
2020-04-02 15:00:00 12.1 3 Este 10 Este 0 -- -- 61
2020-04-02 14:00:00 9.8 5 Nordeste 17 Nordeste 0 -- -- 70
2020-04-02 13:00:00 8.7 9 Nordeste 19 Este 0 -- -- 75
2020-04-02 12:00:00 7.7 9 Nordeste 18 Nordeste 0 -- -- 77
2020-04-02 11:00:00 7.7 9 Este 19 Nordeste 0 -- -- 79
2020-04-02 10:00:00 6.6 12 Nordeste 22 Nordeste 0 -- -- 82
2020-04-02 09:00:00 6.3 16 Este 24 Este 0 -- -- 83
2020-04-02 08:00:00 5.3 5 Este 12 Este 0 -- -- 88
2020-04-02 07:00:00 5.3 6 Este 14 Este 0 -- -- 87
2020-04-02 06:00:00 5.4 9 Este 14 Este 0 -- -- 87
2020-04-02 05:00:00 5.6 4 Este 13 Este 0 -- -- 87
2020-04-02 04:00:00 5.8 6 Este 15 Nordeste 0 -- -- 87
2020-04-02 03:00:00 5.6 6 Este 11 Este 0 -- -- 88
2020-04-02 02:00:00 5.8 8 Este 23 Este 0 -- -- 87
2020-04-02 01:00:00 5.8 11 Nordeste 20 Nordeste 0 -- -- 88
2020-04-02 00:00:00 5.6 12 Este 24 Nordeste 0.4 -- -- 89
2020-04-01 23:00:00 5.9 14 Este 22 Este 0 -- -- 89
2020-04-01 22:00:00 6.2 9 Este 33 Este 0 -- -- 88
2020-04-01 21:00:00 6.2 19 Este 45 Este 0 -- -- 88
2020-04-01 20:00:00 6.3 27 Este 48 Este 0.2 -- -- 88
2020-04-01 19:00:00 6.2 24 Este 44 Este 0.2 -- -- 89
2020-04-01 18:00:00 6.4 23 Este 43 Este 4.8 -- -- 90
2020-04-01 17:00:00 6.7 27 Este 48 Este 1 -- -- 89
2020-04-01 16:00:00 6.8 26 Este 50 Este 1.4 -- -- 90
2020-04-01 15:00:00 7 25 Este 52 Este 0.2 -- -- 91
2020-04-01 14:00:00 6.9 28 Este 50 Este 0 -- -- 91
2020-04-01 13:00:00 6.9 31 Este 51 Este 0.8 -- -- 91
2020-04-01 12:00:00 6.8 28 Este 51 Sudeste 1.2 -- -- 91
2020-04-01 11:00:00 6.5 27 Este 46 Este 0.4 -- -- 91
2020-04-01 10:00:00 6.4 27 Este 50 Este 0.6 -- -- 91
2020-04-01 09:00:00 6.7 30 Este 52 Este 0.2 -- -- 91
2020-04-01 08:00:00 7.1 23 Este 43 Este 1.4 -- -- 90
2020-04-01 07:00:00 7.3 19 Este 40 Nordeste 0 -- -- 90
2020-04-01 06:00:00 7.4 20 Este 40 Este 0.4 -- -- 90
2020-04-01 05:00:00 7.5 19 Este 37 Este 1.2 -- -- 89
2020-04-01 04:00:00 7.5 20 Este 37 Nordeste 0.8 -- -- 88
2020-04-01 03:00:00 7.7 20 Este 33 Este 0 -- -- 86
2020-04-01 02:00:00 7.5 20 Este 35 Este 0 -- -- 85
2020-04-01 01:00:00 7.3 18 Este 36 Este 0 -- -- 82
2020-04-01 00:00:00 7.2 18 Este 32 Este 0 -- -- 82
2020-03-31 23:00:00 7 21 Este 35 Este 0 -- -- 83
2020-03-31 22:00:00 6.9 19 Este 30 Nordeste 0 -- -- 82
2020-03-31 21:00:00 7 23 Este 38 Este 0 -- -- 83
2020-03-31 20:00:00 6.9 17 Este 34 Este 0.2 -- -- 84
2020-03-31 19:00:00 7 21 Este 39 Este 0.2 -- -- 85
2020-03-31 18:00:00 7.1 16 Este 36 Este 1.2 -- -- 86
2020-03-31 17:00:00 7.3 19 Este 37 Este 1.4 -- -- 86
2020-03-31 16:00:00 7.3 18 Este 29 Este 0.6 -- -- 86
2020-03-31 15:00:00 7.4 14 Este 28 Este 0.6 -- -- 85
2020-03-31 14:00:00 7.3 16 Este 43 Este 0.6 -- -- 83
2020-03-31 13:00:00 8.3 22 Este 44 Este 0 -- -- 76
2020-03-31 12:00:00 7.2 27 Este 40 Este 0 -- -- 79
2020-03-31 11:00:00 6.4 19 Este 39 Este 0 -- -- 81
2020-03-31 10:00:00 5.6 14 Este 28 Este 0 -- -- 85
2020-03-31 09:00:00 5 12 Este 24 Este 0.4 -- -- 84
2020-03-31 08:00:00 4.8 13 Este 29 Este 0 -- -- 81
2020-03-31 07:00:00 4.4 6 Este 23 Este 0 -- -- 82
2020-03-31 06:00:00 4.5 14 Este 26 Este 0.2 -- -- 79
2020-03-31 05:00:00 4.4 13 Este 22 Este 0 -- -- 84
2020-03-31 04:00:00 3.7 10 Este 15 Este 0 -- -- 87
2020-03-31 03:00:00 3.4 6 Este 12 Este 0 -- -- 87
2020-03-31 02:00:00 3.2 4 Sudeste 13 Este 0 -- -- 86
2020-03-31 01:00:00 3.4 6 Este 12 Este 0 -- -- 82
2020-03-31 00:00:00 3.3 4 Este 8 Este 0 -- -- 81
2020-03-30 23:00:00 3.2 0 Calma 10 Noroeste 0 -- -- 78
2020-03-30 22:00:00 3 8 Oeste 13 Oeste 0 -- -- 78
2020-03-30 21:00:00 3 6 Noroeste 13 Noroeste 0 -- -- 79
2020-03-30 20:00:00 2.9 3 Oeste 18 Noroeste 0 -- -- 82
2020-03-30 19:00:00 2.6 6 Noroeste 16 Noroeste 0.2 -- -- 83
2020-03-30 18:00:00 2.2 4 Oeste 18 Oeste 0.6 -- -- 83
2020-03-30 17:00:00 2.2 8 Oeste 26 Noroeste 1 -- -- 82
2020-03-30 16:00:00 3.7 14 Noroeste 33 Noroeste 0.2 -- -- 68
2020-03-30 15:00:00 5.3 13 Noroeste 28 Noroeste 0 -- -- 62
2020-03-30 14:00:00 4.2 8 Noroeste 24 Noroeste 0.8 -- -- 73
2020-03-30 13:00:00 4.1 11 Noroeste 24 Noroeste 0 -- -- 72
2020-03-30 12:00:00 5.9 12 Noroeste 18 Oeste 0 -- -- 68
2020-03-30 11:00:00 6.8 7 Noroeste 19 Noroeste 0 -- -- 74
2020-03-30 10:00:00 6.3 3 Noroeste 12 Noroeste 0 -- -- 75
2020-03-30 09:00:00 6.4 3 Noroeste 9 Noroeste 0 -- -- 76
2020-03-30 08:00:00 6 5 Noroeste 10 Noroeste 0 -- -- 76
2020-03-30 07:00:00 6.3 4 Oeste 11 Noroeste 0 -- -- 76
2020-03-30 06:00:00 6.3 3 Norte 9 Noroeste 0 -- -- 73
2020-03-30 05:00:00 6.4 3 Noroeste 10 Norte 0 -- -- 72
2020-03-30 04:00:00 5.8 2 Noroeste 8 Sudoeste 0 -- -- 74
2020-03-30 03:00:00 6.1 2 Noroeste 10 Norte 0 -- -- 74
2020-03-30 02:00:00 6.7 4 Noroeste 9 Noroeste 0 -- -- 75
2020-03-30 01:00:00 5.5 4 Noroeste 12 Noroeste 0 -- -- 81
2020-03-30 00:00:00 6.2 6 Noroeste 10 Noroeste 0 -- -- 80
2020-03-29 23:00:00 7.8 5 Noroeste 6 Noroeste 0 -- -- 75
2020-03-29 22:00:00 8.2 0 Calma 4 Este 0 -- -- 72
2020-03-29 21:00:00 10.1 0 Calma 16 Este 0 -- -- 65
2020-03-29 20:00:00 12.7 13 Nordeste 25 Nordeste 0 -- -- 55
2020-03-29 19:00:00 16.8 11 Noroeste 22 Noroeste 0 -- -- 33
2020-03-29 18:00:00 17.3 14 Noroeste 24 Oeste 0 -- -- 30
2020-03-29 17:00:00 18.3 7 Norte 35 Oeste 0 -- -- 28
2020-03-29 16:00:00 17.2 10 Oeste 25 Noroeste 0 -- -- 29
2020-03-29 15:00:00 17.1 17 Noroeste 26 Noroeste 0 -- -- 33
2020-03-29 14:00:00 16.3 9 Noroeste 22 Oeste 0 -- -- 37
2020-03-29 13:00:00 15.5 7 Norte 19 Oeste 0 -- -- 41
2020-03-29 12:00:00 13.9 10 Noroeste 20 Oeste 0 -- -- 40
2020-03-29 11:00:00 12.4 14 Oeste 23 Noroeste 0 -- -- 46
2020-03-29 10:00:00 11.5 13 Oeste 27 Oeste 0 -- -- 44
2020-03-29 09:00:00 9.3 13 Oeste 23 Oeste 0 -- -- 52
2020-03-29 08:00:00 9.3 13 Oeste 24 Oeste 0 -- -- 53
2020-03-29 07:00:00 8.7 13 Oeste 18 Oeste 0 -- -- 55
2020-03-29 06:00:00 8.7 4 Oeste 18 Oeste 0 -- -- 55
2020-03-29 05:00:00 9.2 9 Noroeste 28 Noroeste 0 -- -- 54
2020-03-29 03:00:00 9.9 9 Noroeste 28 Noroeste 0 -- -- 51
2020-03-29 01:00:00 10.4 13 Noroeste 28 Noroeste 0 -- -- 50
2020-03-29 00:00:00 10.5 17 Noroeste 26 Noroeste 0 -- -- 52
2020-03-28 23:00:00 9.1 12 Noroeste 21 Noroeste 0 -- -- 58
2020-03-28 22:00:00 7.6 10 Noroeste 15 Noroeste 0 -- -- 66
2020-03-28 21:00:00 7.8 9 Noroeste 12 Noroeste 0 -- -- 69
2020-03-28 20:00:00 9.3 8 Noroeste 16 Noroeste 0 -- -- 65
2020-03-28 19:00:00 10.8 13 Oeste 24 Sudoeste 0 -- -- 59
2020-03-28 18:00:00 12.1 12 Oeste 19 Oeste 0 -- -- 54
2020-03-28 17:00:00 13.9 9 Noroeste 22 Sudoeste 0 -- -- 45
2020-03-28 16:00:00 13.7 3 Norte 20 Sudoeste 0 -- -- 43
2020-03-28 15:00:00 13.4 5 Oeste 10 Sudeste 0 -- -- 46
2020-03-28 14:00:00 12.5 9 Sudeste 23 Sudeste 0 -- -- 51
2020-03-28 13:00:00 13.1 6 Este 22 Nordeste 0 -- -- 47
2020-03-28 12:00:00 12.6 4 Este 17 Este 0 -- -- 47
2020-03-28 11:00:00 10.8 7 Este 13 Nordeste 0 -- -- 51
2020-03-28 10:00:00 10.7 3 Norte 12 Nordeste 0 -- -- 54
2020-03-28 09:00:00 8.9 3 Noroeste 13 Noroeste 0 -- -- 60
2020-03-28 08:00:00 7 5 Noroeste 9 Norte 0 -- -- 69
2020-03-28 07:00:00 5.4 3 Oeste 6 Noroeste 0 -- -- 79
2020-03-28 06:00:00 5 4 Noroeste 5 Noroeste 0 -- -- 81
2020-03-28 05:00:00 5 5 Noroeste 9 Norte 0 -- -- 81
2020-03-28 04:00:00 5.1 3 Oeste 6 Oeste 0 -- -- 81
2020-03-28 03:00:00 5.2 4 Oeste 6 Oeste 0 -- -- 81
2020-03-28 02:00:00 5.1 0 Calma 8 Norte 0 -- -- 83
2020-03-28 01:00:00 5.3 3 Norte 10 Norte 0 -- -- 82
2020-03-28 00:00:00 4.9 3 Noroeste 8 Noroeste 0.2 -- -- 86
2020-03-27 23:00:00 5 4 Noroeste 8 Noroeste 0 -- -- 86
2020-03-27 22:00:00 5.1 4 Noroeste 9 Noroeste 0.2 -- -- 86
2020-03-27 21:00:00 5.2 2 Noroeste 6 Noroeste 0.2 -- -- 84
2020-03-27 20:00:00 5.9 3 Este 9 Este 0.2 -- -- 76
2020-03-27 19:00:00 7.5 4 Sudeste 12 Sur 0 -- -- 62
2020-03-27 18:00:00 8.4 7 Sur 17 Sudeste 0 -- -- 56
2020-03-27 17:00:00 9.5 8 Sudeste 22 Sudoeste 0 -- -- 56
2020-03-27 16:00:00 10.4 10 Sudeste 18 Sudeste 0 -- -- 49
2020-03-27 15:00:00 11.5 6 Norte 29 Oeste 0 -- -- 32
2020-03-27 14:00:00 12 6 Norte 22 Noroeste 0 -- -- 35
2020-03-27 13:00:00 10.3 9 Norte 25 Noroeste 0 -- -- 41
2020-03-27 12:00:00 9.5 10 Oeste 18 Norte 0 -- -- 37
2020-03-27 11:00:00 8.8 8 Norte 26 Noroeste 0 -- -- 44
2020-03-27 10:00:00 7.5 12 Noroeste 25 Noroeste 0 -- -- 47
2020-03-27 09:00:00 5.8 15 Noroeste 30 Noroeste 0 -- -- 59
2020-03-27 08:00:00 3.2 6 Oeste 11 Oeste 0 -- -- 66
2020-03-27 07:00:00 -1.4 6 Noroeste 10 Noroeste 0 -- -- 83
2020-03-27 06:00:00 -1.7 7 Noroeste 9 Noroeste 0 -- -- 83
2020-03-27 05:00:00 -2 8 Noroeste 10 Noroeste 0 -- -- 82
2020-03-27 04:00:00 -2 8 Noroeste 10 Noroeste 0 -- -- 83
2020-03-27 03:00:00 -1.7 7 Noroeste 12 Noroeste 0 -- -- 85
2020-03-27 02:00:00 -1.6 6 Noroeste 9 Noroeste 0 -- -- 86
2020-03-27 01:00:00 -1.1 5 Noroeste 9 Noroeste 0 -- -- 87
2020-03-27 00:00:00 -0.2 5 Noroeste 8 Noroeste 0 -- -- 86
2020-03-26 23:00:00 0.5 4 Noroeste 6 Noroeste 0 -- -- 84
2020-03-26 22:00:00 2.4 3 Oeste 10 Nordeste 0 -- -- 82
2020-03-26 21:00:00 3.4 4 Nordeste 17 Este 0 -- -- 79
2020-03-26 20:00:00 3.9 11 Este 21 Este 0 -- -- 76
2020-03-26 19:00:00 4.2 17 Este 31 Este 0 -- -- 74
2020-03-26 18:00:00 4.8 13 Este 36 Este 0 -- -- 74
2020-03-26 17:00:00 5.3 21 Este 36 Este 0 -- -- 69
2020-03-26 16:00:00 5.4 18 Este 35 Este 0 -- -- 74
2020-03-26 15:00:00 4.7 17 Este 33 Este 0 -- -- 80
2020-03-26 14:00:00 4.3 14 Este 37 Este 1.4 -- -- 82
2020-03-26 13:00:00 8 13 Sudeste 23 Sudeste 0 -- -- 59
2020-03-26 12:00:00 6.6 7 Este 23 Este 0 -- -- 62
2020-03-26 11:00:00 6.5 7 Noroeste 18 Norte 0 -- -- 63
2020-03-26 10:00:00 5.6 8 Noroeste 19 Noroeste 0 -- -- 69
2020-03-26 09:00:00 4.9 4 Este 22 Este 0 -- -- 72
2020-03-26 08:00:00 5.1 7 Oeste 27 Noroeste 0 -- -- 72
2020-03-26 07:00:00 3.4 10 Noroeste 28 Oeste 0 -- -- 79
2020-03-26 06:00:00 3.4 16 Oeste 30 Noroeste 0 -- -- 79
2020-03-26 05:00:00 3.1 10 Oeste 13 Noroeste 0 -- -- 79
2020-03-26 04:00:00 2 4 Oeste 8 Noroeste 0 -- -- 82
2020-03-26 03:00:00 1.6 3 Noroeste 8 Noroeste 0 -- -- 84
2020-03-26 02:00:00 3 6 Noroeste 14 Noroeste 0 -- -- 80
2020-03-26 01:00:00 3.1 12 Noroeste 17 Oeste 0 -- -- 77
2020-03-26 00:00:00 0.8 9 Noroeste 12 Noroeste 0 -- -- 81
2020-03-25 23:00:00 1.7 6 Noroeste 10 Noroeste 0 -- -- 76
2020-03-25 22:00:00 3.3 12 Noroeste 22 Oeste 0 -- -- 70
2020-03-25 21:00:00 3.4 12 Noroeste 19 Oeste 0 -- -- 73
2020-03-25 20:00:00 4.1 12 Oeste 16 Oeste 0 -- -- 69
2020-03-25 19:00:00 4.9 8 Oeste 18 Oeste 0 -- -- 65
2020-03-25 18:00:00 5.5 14 Oeste 21 Sudoeste 0 -- -- 61
2020-03-25 17:00:00 6.3 8 Sudoeste 18 Sudoeste 0 -- -- 55
2020-03-25 16:00:00 7.1 9 Oeste 20 Oeste 0 -- -- 55
2020-03-25 15:00:00 6.8 10 Oeste 18 Sudoeste 0 -- -- 52
2020-03-25 14:00:00 6.9 5 Sur 18 Sudeste 0 -- -- 48
2020-03-25 13:00:00 6.9 2 Norte 12 Nordeste 0 -- -- 51
2020-03-25 12:00:00 5.6 3 Este 11 Norte 0 -- -- 59
2020-03-25 11:00:00 2.7 6 Oeste 13 Noroeste 0.2 -- -- 80
2020-03-25 10:00:00 1.7 5 Este 32 Este 0.2 -- -- 83
2020-03-25 09:00:00 2.5 12 Nordeste 21 Nordeste 0 -- -- 75
2020-03-25 08:00:00 3.1 8 Este 23 Este 0 -- -- 66
2020-03-25 07:00:00 3.5 8 Nordeste 25 Nordeste 0 -- -- 59
2020-03-25 06:00:00 3.6 12 Nordeste 22 Nordeste 0 -- -- 64
2020-03-25 05:00:00 3.7 11 Este 27 Este 0 -- -- 67
2020-03-25 04:00:00 3.9 14 Este 27 Este 0 -- -- 67
2020-03-25 03:00:00 4 13 Este 28 Este 0 -- -- 70
2020-03-25 02:00:00 4.1 16 Este 27 Este 0 -- -- 71
2020-03-25 01:00:00 4.1 15 Este 34 Este 0 -- -- 74
2020-03-25 00:00:00 4.4 18 Este 32 Este 0 -- -- 74
2020-03-24 23:00:00 4.7 16 Este 32 Este 0 -- -- 75
2020-03-24 22:00:00 5 16 Este 28 Este 0 -- -- 78
2020-03-24 21:00:00 5.2 14 Este 31 Este 0 -- -- 79
2020-03-24 20:00:00 5.4 18 Este 32 Este 0 -- -- 82
2020-03-24 19:00:00 5.9 16 Este 26 Este 0.2 -- -- 84
2020-03-24 18:00:00 6.8 15 Este 26 Este 0 -- -- 81
2020-03-24 17:00:00 7.7 12 Este 27 Sudeste 0 -- -- 71
2020-03-24 16:00:00 8.1 15 Sudeste 25 Sudeste 0 -- -- 72
2020-03-24 15:00:00 8.7 16 Sudeste 26 Sudeste 0 -- -- 71
2020-03-24 14:00:00 8.9 11 Este 21 Este 0 -- -- 69
2020-03-24 13:00:00 10.2 13 Sudeste 31 Este 0 -- -- 65
2020-03-24 12:00:00 9.3 18 Este 28 Sudeste 0 -- -- 66
2020-03-24 11:00:00 8.2 15 Este 25 Este 0 -- -- 76
2020-03-24 10:00:00 7.3 14 Este 26 Este 0 -- -- 79
2020-03-24 09:00:00 6.7 21 Este 35 Este 0 -- -- 80
2020-03-24 08:00:00 5.8 19 Este 32 Este 0 -- -- 84
2020-03-24 07:00:00 6.2 16 Este 36 Este 0 -- -- 85
2020-03-24 06:00:00 6.2 17 Este 31 Este 0 -- -- 85
2020-03-24 05:00:00 6.7 16 Este 33 Este 0 -- -- 83
2020-03-24 04:00:00 6.7 17 Este 35 Este 0 -- -- 84
2020-03-24 03:00:00 6.9 18 Este 28 Este 0 -- -- 88
2020-03-24 02:00:00 7.1 15 Este 30 Este 0 -- -- 90
2020-03-24 01:00:00 7 16 Este 37 Este 0 -- -- 91
2020-03-24 00:00:00 7.5 18 Este 36 Este 0 -- -- 90
2020-03-23 23:00:00 7.7 18 Este 32 Este 0 -- -- 90
2020-03-23 22:00:00 8.1 20 Este 36 Este 0 -- -- 88
2020-03-23 21:00:00 8.2 19 Este 36 Este 0 -- -- 87
2020-03-23 20:00:00 8.8 19 Este 30 Este 0 -- -- 84
2020-03-23 19:00:00 9.6 9 Este 17 Este 0 -- -- 84
2020-03-23 18:00:00 10.1 10 Este 28 Este 0 -- -- 82
2020-03-23 17:00:00 10.8 11 Sudeste 29 Este 0 -- -- 79
2020-03-23 16:00:00 11.8 13 Este 32 Este 0.2 -- -- 76
2020-03-23 15:00:00 10.3 17 Este 31 Este 0 -- -- 84
2020-03-23 14:00:00 10.2 17 Este 31 Este 0 -- -- 83
2020-03-23 13:00:00 9.6 15 Este 30 Nordeste 0 -- -- 86
2020-03-23 12:00:00 9.5 14 Este 27 Este 0 -- -- 90
2020-03-23 11:00:00 8.9 14 Este 25 Este 0 -- -- 90
2020-03-23 10:00:00 8.7 14 Este 27 Este 0.6 -- -- 90
2020-03-23 09:00:00 8.6 16 Este 30 Este 0 -- -- 89
2020-03-23 08:00:00 8.3 16 Este 28 Este 0 -- -- 90
2020-03-23 07:00:00 8.3 17 Este 30 Este 0 -- -- 89
2020-03-23 06:00:00 8.3 10 Este 28 Este 0 -- -- 90
2020-03-23 05:00:00 8.3 12 Este 19 Este 0 -- -- 90
2020-03-23 04:00:00 8.3 10 Este 18 Este 0 -- -- 89
2020-03-23 03:00:00 8.3 14 Este 26 Este 0 -- -- 89
2020-03-23 02:00:00 8.6 14 Este 26 Este 0 -- -- 90
2020-03-23 01:00:00 8.6 11 Este 20 Nordeste 0 -- -- 89
2020-03-23 00:00:00 7.8 6 Este 17 Este 0 -- -- 87
2020-03-22 23:00:00 8.2 11 Este 24 Este 0.2 -- -- 88
2020-03-22 22:00:00 8.9 12 Este 22 Sudeste 0.2 -- -- 88
2020-03-22 21:00:00 8.9 11 Este 24 Este 0 -- -- 88
2020-03-22 20:00:00 9.1 13 Este 23 Este 0 -- -- 87
2020-03-22 19:00:00 9.5 12 Este 23 Este 0 -- -- 83
2020-03-22 18:00:00 10.7 10 Este 18 Este 0 -- -- 81
2020-03-22 17:00:00 10.5 4 Este 10 Este 0.2 -- -- 83
2020-03-22 16:00:00 10 6 Este 17 Sudeste 2.4 -- -- 82
2020-03-22 15:00:00 11.5 11 Sudeste 19 Sudeste 0 -- -- 67
2020-03-22 14:00:00 11.6 10 Sudeste 20 Sudeste 0 -- -- 65
2020-03-22 13:00:00 11 13 Sudeste 26 Este 0 -- -- 70
2020-03-22 12:00:00 12.2 15 Sudeste 27 Este 0 -- -- 60
2020-03-22 11:00:00 11.5 13 Este 25 Este 0 -- -- 70
2020-03-22 10:00:00 9.3 14 Este 23 Este 0 -- -- 81
2020-03-22 09:00:00 8.1 7 Este 14 Nordeste 0 -- -- 90
2020-03-22 08:00:00 4.4 3 Oeste 8 Noroeste 0 -- -- 91
2020-03-22 07:00:00 3.6 6 Noroeste 8 Noroeste 0 -- -- 90
2020-03-22 06:00:00 4.7 3 Noroeste 6 Noroeste 0 -- -- 90
2020-03-22 05:00:00 3.9 0 Calma 8 Noroeste 0 -- -- 90
2020-03-22 04:00:00 4.9 3 Noroeste 4 Noroeste 0 -- -- 87
2020-03-22 03:00:00 4.7 3 Noroeste 5 Noroeste 0 -- -- 88
2020-03-22 02:00:00 3.9 5 Oeste 10 Noroeste 0 -- -- 88
2020-03-22 01:00:00 5.1 5 Noroeste -- -- 0 -- -- 88
2020-03-22 00:00:00 5.5 3 Oeste 8 Noroeste 0 -- -- 87
2020-03-21 23:00:00 4 8 Noroeste 10 Noroeste 0 -- -- 86
2020-03-21 22:00:00 4.3 6 Noroeste 10 Noroeste 0 -- -- 85
2020-03-21 21:00:00 5.7 6 Noroeste 8 Noroeste 0 -- -- 83
2020-03-21 20:00:00 7.2 0 Calma 8 Sudoeste 0 -- -- 76
2020-03-21 19:00:00 9.8 6 Sudoeste 12 Sudeste 0 -- -- 65
2020-03-21 18:00:00 12.5 8 Sudeste 18 Sur 0 -- -- 55
2020-03-21 17:00:00 12.3 13 Sudeste 22 Sur 0 -- -- 57
2020-03-21 16:00:00 12.9 14 Sudeste 26 Este 0 -- -- 55
2020-03-21 15:00:00 14.8 10 Sur 23 Sudeste 0 -- -- 44
2020-03-21 14:00:00 13.5 13 Sudeste 24 Sudeste 0 -- -- 41
2020-03-21 13:00:00 12.5 12 Sudeste 23 Sudeste 0 -- -- 46
2020-03-21 12:00:00 12 14 Sudeste 27 Este 0 -- -- 48
2020-03-21 11:00:00 11.1 14 Este 25 Este 0 -- -- 56
2020-03-21 10:00:00 10 14 Nordeste 23 Nordeste 0 -- -- 61
2020-03-21 09:00:00 8.9 8 Este 13 Nordeste 0 -- -- 63
2020-03-21 08:00:00 2.8 5 Noroeste 8 Noroeste 0 -- -- 81
2020-03-21 07:00:00 0.8 7 Noroeste 9 Noroeste 0 -- -- 88
2020-03-21 06:00:00 0.9 6 Noroeste 8 Noroeste 0 -- -- 86
2020-03-21 05:00:00 1.1 6 Noroeste 10 Noroeste 0 -- -- 86
2020-03-21 04:00:00 1.1 8 Noroeste 10 Noroeste 0 -- -- 85
2020-03-21 03:00:00 1.6 7 Noroeste 10 Noroeste 0 -- -- 86
2020-03-21 02:00:00 1.8 8 Noroeste 10 Noroeste 0 -- -- 86
2020-03-21 01:00:00 1.9 7 Noroeste 9 Noroeste 0 -- -- 87
2020-03-21 00:00:00 2.4 8 Noroeste 9 Noroeste 0 -- -- 88
2020-03-20 23:00:00 2.9 5 Noroeste 7 Noroeste 0 -- -- 88
2020-03-20 22:00:00 3.8 5 Noroeste 8 Noroeste 0 -- -- 86
2020-03-20 21:00:00 5.2 4 Norte 8 Noroeste 0 -- -- 84
2020-03-20 20:00:00 6.6 3 Noroeste 6 Sudeste 0 -- -- 80
2020-03-20 19:00:00 9.2 4 Sudeste 17 Sudeste 0 -- -- 71
2020-03-20 18:00:00 11.2 10 Sudeste 23 Sudeste 0 -- -- 61
2020-03-20 17:00:00 12.5 12 Sudeste 22 Sudeste 0 -- -- 55
2020-03-20 16:00:00 13.8 9 Sudeste 23 Sudeste 0 -- -- 45
2020-03-20 15:00:00 13.1 10 Sudeste 22 Sudeste 0 -- -- 47
2020-03-20 14:00:00 12.7 11 Este 26 Sudeste 0 -- -- 49
2020-03-20 13:00:00 12.5 11 Sudeste 26 Este 0 -- -- 48
2020-03-20 12:00:00 11.8 16 Sudeste 27 Sudeste 0 -- -- 47
2020-03-20 11:00:00 11 11 Sudeste 23 Sudeste 0 -- -- 52
2020-03-20 10:00:00 10.3 11 Sudeste 20 Sudeste 0 -- -- 64
2020-03-20 09:00:00 10.2 5 Este 8 Este 0 -- -- 73
2020-03-20 08:00:00 3.8 5 Noroeste 8 Noroeste 0 -- -- 89
2020-03-20 07:00:00 2.8 5 Noroeste 6 Noroeste 0 -- -- 90
2020-03-20 06:00:00 4.2 4 Noroeste 9 Noroeste 0 -- -- 90
2020-03-20 05:00:00 5 0 Calma 4 Noroeste 0 -- -- 90
2020-03-20 04:00:00 4.7 3 Noroeste 5 Noroeste 0 -- -- 90
2020-03-20 03:00:00 3.9 0 Calma 4 Oeste 0 -- -- 88
2020-03-20 02:00:00 4.3 0 Calma 4 Nordeste 0 -- -- 89
2020-03-20 01:00:00 3 3 Noroeste 6 Noroeste 0 -- -- 89
2020-03-20 00:00:00 2.7 5 Noroeste 10 Noroeste 0 -- -- 87
2020-03-19 23:00:00 3.7 2 Noroeste 4 Noroeste 0 -- -- 88
2020-03-19 22:00:00 4.7 4 Noroeste 6 Noroeste 0 -- -- 88
2020-03-19 21:00:00 5.4 3 Noroeste 3 Noroeste 0 -- -- 87
2020-03-19 20:00:00 6.9 0 Calma 6 Este 0 -- -- 84
2020-03-19 19:00:00 8.8 5 Sudeste 13 Sudeste 0 -- -- 79
2020-03-19 18:00:00 10.5 7 Sudeste 15 Sudeste 0 -- -- 72
2020-03-19 17:00:00 11.7 9 Sur 18 Sudeste 0 -- -- 69
2020-03-19 16:00:00 13.1 9 Sudeste 19 Sudeste 0 -- -- 64
2020-03-19 15:00:00 13.2 12 Sudeste 22 Sudeste 0 -- -- 63
2020-03-19 14:00:00 13.9 10 Sudeste 22 Sudeste 0 -- -- 61
2020-03-19 13:00:00 14.1 11 Sudeste 24 Sudeste 0 -- -- 51
2020-03-19 12:00:00 13.1 11 Sudeste 23 Sudeste 0 -- -- 58
2020-03-19 11:00:00 12.4 11 Sudeste 21 Sudeste 0 -- -- 63
2020-03-19 10:00:00 12.5 6 Sudeste 14 Este 0 -- -- 62
2020-03-19 09:00:00 10.7 7 Este 10 Este 0 -- -- 75
2020-03-19 08:00:00 5.8 5 Noroeste 10 Noroeste 0 -- -- 88
2020-03-19 07:00:00 3.5 8 Noroeste 10 Noroeste 0 -- -- 90
2020-03-19 06:00:00 4.6 8 Noroeste 11 Noroeste 0 -- -- 91
2020-03-19 05:00:00 4.5 8 Noroeste 11 Noroeste 0 -- -- 90
2020-03-19 04:00:00 4.2 9 Noroeste 10 Noroeste 0 -- -- 90
2020-03-19 03:00:00 4.3 7 Noroeste 10 Noroeste 0 -- -- 89
2020-03-19 02:00:00 5.1 9 Noroeste 10 Noroeste 0 -- -- 89
2020-03-19 01:00:00 4.8 6 Noroeste 9 Noroeste 0 -- -- 90
2020-03-19 00:00:00 5 6 Noroeste 10 Noroeste 0 -- -- 88
2020-03-18 23:00:00 6.1 6 Noroeste 12 Noroeste 0 -- -- 89
2020-03-18 22:00:00 6.6 9 Noroeste 11 Noroeste 0 -- -- 87
2020-03-18 21:00:00 6.8 6 Noroeste 8 Noroeste 0 -- -- 85
2020-03-18 20:00:00 8.6 3 Noroeste 9 Noroeste 0 -- -- 81
2020-03-18 19:00:00 10.8 6 Noroeste 9 Noroeste 0 -- -- 75
2020-03-18 18:00:00 13 4 Sur 12 Sur 0 -- -- 63
2020-03-18 17:00:00 16.1 6 Sur 14 Sudeste 0 -- -- 46
2020-03-18 16:00:00 15.9 8 Sur 18 Sur 0 -- -- 47
2020-03-18 15:00:00 14.9 9 Sudeste 18 Sudeste 0 -- -- 46
2020-03-18 14:00:00 14.2 5 Sur 15 Este 0 -- -- 49
2020-03-18 13:00:00 13.2 11 Sudeste 18 Sudeste 0 -- -- 52
2020-03-18 12:00:00 13.3 9 Sudeste 15 Sudeste 0 -- -- 51
2020-03-18 11:00:00 12.4 3 Este 9 Nordeste 0 -- -- 61
2020-03-18 10:00:00 11 7 Este 9 Este 0 -- -- 62
2020-03-18 09:00:00 7.8 4 Noroeste 8 Noroeste 0 -- -- 82
2020-03-18 08:00:00 5.8 5 Noroeste 10 Noroeste 0 -- -- 84
2020-03-18 07:00:00 6.7 7 Noroeste 10 Noroeste 0 -- -- 81
2020-03-18 06:00:00 7.4 3 Noroeste 10 Nordeste 0 -- -- 81
2020-03-18 05:00:00 7.7 0 Calma 9 Nordeste 0 -- -- 83
2020-03-18 04:00:00 8.1 2 Oeste 7 Oeste 0 -- -- 81
2020-03-18 03:00:00 6.7 5 Oeste 10 Noroeste 0 -- -- 82
2020-03-18 02:00:00 6.6 9 Noroeste 12 Noroeste 0 -- -- 81
2020-03-18 01:00:00 7.1 4 Noroeste 6 Noroeste 0 -- -- 78
2020-03-18 00:00:00 7.6 5 Noroeste 7 Noroeste 0 -- -- 79
2020-03-17 23:00:00 8.2 3 Noroeste 6 Noroeste 0 -- -- 78
2020-03-17 22:00:00 8.6 2 Noroeste 4 Oeste 0 -- -- 77
2020-03-17 21:00:00 8.9 0 Calma 10 Este 0 -- -- 78
2020-03-17 20:00:00 9.8 7 Este 15 Este 0 -- -- 73
2020-03-17 19:00:00 10.5 10 Este 22 Este 0 -- -- 72
2020-03-17 18:00:00 11.5 15 Este 28 Este 0 -- -- 70
2020-03-17 17:00:00 12.2 17 Este 39 Este 0 -- -- 69
2020-03-17 16:00:00 12.3 24 Este 42 Este 0 -- -- 71
2020-03-17 15:00:00 12.1 22 Este 38 Este 0 -- -- 73
2020-03-17 14:00:00 11.7 26 Este 39 Este 0 -- -- 75
2020-03-17 13:00:00 11.3 30 Este 44 Este 0 -- -- 78
2020-03-17 12:00:00 11 23 Este 40 Este 0 -- -- 78
2020-03-17 11:00:00 11 22 Este 38 Este 0 -- -- 78
2020-03-17 10:00:00 10.5 18 Este 34 Este 0 -- -- 82
2020-03-17 09:00:00 9.7 17 Este 34 Este 0.2 -- -- 88
2020-03-17 08:00:00 9.3 13 Este 28 Este 0 -- -- 89
2020-03-17 07:00:00 9 9 Este 31 Nordeste 0 -- -- 86
2020-03-17 06:00:00 9.2 19 Este 35 Este 0 -- -- 82
2020-03-17 05:00:00 9.2 14 Este 32 Nordeste 0 -- -- 81
2020-03-17 04:00:00 8.8 18 Este 41 Nordeste 0 -- -- 83
2020-03-17 03:00:00 9 19 Este 44 Este 0 -- -- 80
2020-03-17 02:00:00 8.7 21 Este 39 Este 0 -- -- 89
2020-03-17 01:00:00 8.3 27 Este 51 Este 0.2 -- -- 91
2020-03-17 00:00:00 8.8 29 Este 47 Este 0.2 -- -- 91
2020-03-16 23:00:00 9 25 Este 44 Este 0.2 -- -- 91
2020-03-16 22:00:00 8.9 29 Este 50 Este 0.2 -- -- 91
2020-03-16 21:00:00 9.2 32 Este 50 Este 1 -- -- 91
2020-03-16 20:00:00 9.3 23 Este 39 Este 1.6 -- -- 90
2020-03-16 19:00:00 9.1 18 Este 35 Este 2.6 -- -- 91
2020-03-16 18:00:00 9.1 16 Nordeste 32 Este 7.6 -- -- 90
2020-03-16 17:00:00 9.5 19 Este 35 Este 5.4 -- -- 91
2020-03-16 16:00:00 9.6 16 Este 41 Este 9.2 -- -- 91
2020-03-16 15:00:00 9.7 11 Sudeste 36 Este 18.6 -- -- 90
2020-03-16 14:00:00 9.5 15 Este 40 Este 8.4 -- -- 90
2020-03-16 13:00:00 9.3 22 Este 35 Este 8.2 -- -- 90
2020-03-16 12:00:00 8.9 17 Este 34 Este 6.8 -- -- 89
2020-03-16 11:00:00 8.4 19 Este 36 Nordeste 0.2 -- -- 89
2020-03-16 10:00:00 8.1 26 Este 43 Este 0.2 -- -- 88
2020-03-16 09:00:00 7.8 25 Este 39 Este 0.4 -- -- 89
2020-03-16 08:00:00 7.8 20 Este 36 Este 0 -- -- 89
2020-03-16 07:00:00 7.9 22 Este 35 Este 0 -- -- 89
2020-03-16 06:00:00 8.1 14 Este 29 Este 0 -- -- 89
2020-03-16 05:00:00 8.8 12 Este 20 Sudeste 0 -- -- 90
2020-03-16 04:00:00 8.7 12 Sudeste 26 Sudeste 0 -- -- 90
2020-03-16 03:00:00 8.9 16 Sudeste 27 Sudeste 0 -- -- 90
2020-03-16 02:00:00 9 12 Sudeste 30 Sudeste 0.2 -- -- 89
2020-03-16 01:00:00 9.1 14 Sudeste 33 Sudeste 0.2 -- -- 89
2020-03-16 00:00:00 9.1 12 Sudeste 24 Sudeste 0.6 -- -- 88
2020-03-15 23:00:00 8.8 11 Sudeste 26 Sudeste 0 -- -- 87
2020-03-15 22:00:00 8.7 14 Sudeste 26 Sudeste 0 -- -- 87
2020-03-15 21:00:00 8.8 9 Sudeste 22 Sudeste 0 -- -- 84
2020-03-15 20:00:00 8.9 9 Sudeste 22 Sudeste 0 -- -- 84
2020-03-15 19:00:00 9.2 4 Sudeste 17 Sur 0 -- -- 81
2020-03-15 18:00:00 10 8 Sudeste 20 Sur 0 -- -- 77
2020-03-15 17:00:00 10.9 8 Sur 24 Sur 0 -- -- 73
2020-03-15 16:00:00 11.7 14 Sur 29 Sur 0 -- -- 71
2020-03-15 15:00:00 12.9 14 Sur 31 Sudoeste 0 -- -- 63
2020-03-15 14:00:00 12.6 18 Sudoeste 34 Sur 0 -- -- 64
2020-03-15 13:00:00 12 14 Oeste 29 Oeste 0 -- -- 67
2020-03-15 12:00:00 12.3 12 Sudoeste 28 Oeste 0 -- -- 65
2020-03-15 11:00:00 11.5 20 Sudoeste 31 Sudoeste 0 -- -- 69
2020-03-15 10:00:00 10.5 17 Oeste 26 Oeste 0 -- -- 72
2020-03-15 09:00:00 9.4 8 Oeste 15 Oeste 0 -- -- 76
2020-03-15 08:00:00 6 7 Noroeste 14 Noroeste 0 -- -- 79
2020-03-15 07:00:00 2.8 7 Noroeste 11 Noroeste 0 -- -- 89
2020-03-15 06:00:00 2.4 6 Noroeste 12 Noroeste 0 -- -- 89
2020-03-15 05:00:00 3.2 9 Noroeste 10 Noroeste 0 -- -- 88
2020-03-15 04:00:00 3.6 7 Noroeste 8 Noroeste 0 -- -- 88
2020-03-15 03:00:00 3.5 5 Noroeste 9 Noroeste 0 -- -- 87
2020-03-15 02:00:00 4.4 7 Noroeste 10 Noroeste 0 -- -- 86
2020-03-15 01:00:00 7.1 8 Noroeste 10 Noroeste 0 -- -- 79
2020-03-15 00:00:00 6.3 8 Noroeste 12 Noroeste 0 -- -- 81
2020-03-14 23:00:00 5.7 9 Noroeste 11 Noroeste 0 -- -- 84
2020-03-14 22:00:00 5.8 8 Noroeste 10 Noroeste 0 -- -- 82
2020-03-14 21:00:00 7.2 6 Noroeste 9 Noroeste 0 -- -- 80
2020-03-14 20:00:00 8.3 8 Noroeste 15 Oeste 0 -- -- 72
2020-03-14 19:00:00 10.4 9 Sudoeste 15 Sudeste 0 -- -- 66
2020-03-14 18:00:00 13.5 11 Sur 23 Sur 0 -- -- 51
2020-03-14 17:00:00 17.2 12 Sur 22 Sudoeste 0 -- -- 38
2020-03-14 16:00:00 18.1 10 Sur 22 Sur 0 -- -- 43
2020-03-14 15:00:00 15.7 7 Este 19 Sudeste 0 -- -- 53
2020-03-14 14:00:00 14.7 9 Sudeste 20 Sudeste 0 -- -- 58
2020-03-14 13:00:00 15.5 10 Sudeste 18 Sudeste 0 -- -- 54
2020-03-14 12:00:00 14.3 7 Sudeste 19 Sudeste 0 -- -- 59
2020-03-14 11:00:00 13.9 3 Norte 19 Oeste 0 -- -- 56
2020-03-14 10:00:00 12.4 6 Noroeste 23 Noroeste 0 -- -- 64
2020-03-14 09:00:00 10.9 12 Noroeste 22 Noroeste 0 -- -- 71
2020-03-14 08:00:00 7.7 13 Noroeste 25 Noroeste 0 -- -- 83
2020-03-14 07:00:00 8.3 18 Noroeste 25 Oeste 0 -- -- 83
2020-03-14 06:00:00 8.5 2 Noroeste 14 Oeste 0 -- -- 84
2020-03-14 05:00:00 9.2 9 Noroeste 19 Noroeste 0 -- -- 82
2020-03-14 04:00:00 9.2 9 Noroeste 15 Noroeste 0 -- -- 82
2020-03-14 03:00:00 8.5 12 Noroeste 15 Oeste 0 -- -- 85
2020-03-14 02:00:00 8 4 Noroeste 7 Oeste 0 -- -- 86
2020-03-14 01:00:00 9.5 3 Noroeste 11 Oeste 0 -- -- 81
2020-03-14 00:00:00 8.6 8 Noroeste 13 Noroeste 0 -- -- 84
2020-03-13 23:00:00 9.6 6 Noroeste 9 Noroeste 0 -- -- 81
2020-03-13 22:00:00 8.7 5 Noroeste 10 Noroeste 0 -- -- 83
2020-03-13 21:00:00 10.2 7 Noroeste 12 Noroeste 0 -- -- 79
2020-03-13 20:00:00 10.6 7 Noroeste 13 Oeste 0 -- -- 76
2020-03-13 19:00:00 12.1 9 Oeste 20 Oeste 0 -- -- 71
2020-03-13 18:00:00 13.4 15 Oeste 22 Oeste 0 -- -- 65
2020-03-13 17:00:00 14.2 15 Oeste 26 Oeste 0 -- -- 57
2020-03-13 16:00:00 15.3 16 Oeste 30 Oeste 0 -- -- 53
2020-03-13 15:00:00 16.6 18 Oeste 32 Oeste 0 -- -- 47
2020-03-13 14:00:00 16.5 13 Oeste 24 Oeste 0 -- -- 48
2020-03-13 13:00:00 16 17 Oeste 27 Oeste 0 -- -- 47
2020-03-13 12:00:00 14.4 14 Oeste 25 Oeste 0 -- -- 49
2020-03-13 11:00:00 14.3 10 Oeste 19 Sudoeste 0 -- -- 54
2020-03-13 10:00:00 14.2 7 Sudoeste 18 Sudoeste 0 -- -- 56
2020-03-13 09:00:00 11.1 6 Noroeste 10 Noroeste 0 -- -- 69
2020-03-13 08:00:00 6.7 7 Noroeste 12 Noroeste 0 -- -- 83
2020-03-13 07:00:00 6.5 8 Noroeste 12 Noroeste 0 -- -- 82
2020-03-13 06:00:00 5.7 8 Noroeste 12 Noroeste 0 -- -- 84
2020-03-13 05:00:00 5.5 7 Noroeste 9 Noroeste 0 -- -- 84
2020-03-13 04:00:00 6.4 6 Noroeste 9 Noroeste 0 -- -- 84
2020-03-13 03:00:00 7.4 7 Noroeste 12 Noroeste 0 -- -- 82
2020-03-13 02:00:00 7.8 2 Noroeste 5 Este 0 -- -- 79
2020-03-13 01:00:00 8.7 2 Oeste 8 Este 0 -- -- 81
2020-03-13 00:00:00 9.5 0 Calma 7 Noroeste 0 -- -- 72
2020-03-12 23:00:00 9.7 4 Noroeste 6 Noroeste 0 -- -- 71
2020-03-12 22:00:00 10.1 3 Noroeste 5 Noroeste 0 -- -- 71
2020-03-12 21:00:00 11.3 0 Calma 8 Noroeste 0 -- -- 67
2020-03-12 20:00:00 12.8 3 Noroeste 8 Noroeste 0 -- -- 65
2020-03-12 19:00:00 15.3 2 Oeste 11 Este 0 -- -- 60
2020-03-12 18:00:00 17.6 9 Sudeste 18 Sudeste 0 -- -- 51
2020-03-12 17:00:00 21.1 11 Sudeste 19 Sudeste 0 -- -- 43
2020-03-12 16:00:00 22.7 9 Sudeste 19 Sudeste 0 -- -- 35
2020-03-12 15:00:00 22.1 12 Sudeste 18 Sudeste 0 -- -- 34
2020-03-12 14:00:00 21.3 12 Sudeste 20 Sudeste 0 -- -- 34
2020-03-12 13:00:00 21 12 Sudeste 18 Sudeste 0 -- -- 37
2020-03-12 12:00:00 20 11 Sudeste 22 Sudeste 0 -- -- 41
2020-03-12 11:00:00 20.2 11 Sudeste 17 Sudeste 0 -- -- 34
2020-03-12 10:00:00 19.8 8 Sudeste 12 Sudeste 0 -- -- 35
2020-03-12 09:00:00 16.1 0 Calma 9 Noroeste 0 -- -- 40
2020-03-12 08:00:00 9.3 6 Noroeste 13 Noroeste 0 -- -- 56
2020-03-12 07:00:00 8 8 Noroeste 13 Noroeste 0 -- -- 59
2020-03-12 06:00:00 9.3 12 Noroeste 13 Noroeste 0 -- -- 55
2020-03-12 05:00:00 9.3 10 Noroeste 13 Noroeste 0 -- -- 56
2020-03-12 04:00:00 8.8 10 Noroeste 12 Noroeste 0 -- -- 62
2020-03-12 03:00:00 8.7 9 Noroeste 12 Noroeste 0 -- -- 66
2020-03-12 02:00:00 9.5 9 Noroeste 12 Noroeste 0 -- -- 66
2020-03-12 01:00:00 9.8 11 Noroeste 15 Noroeste 0 -- -- 71
2020-03-12 00:00:00 9.9 6 Noroeste 9 Noroeste 0 -- -- 63
2020-03-11 23:00:00 10.8 7 Noroeste 11 Noroeste 0 -- -- 61
2020-03-11 22:00:00 10.3 9 Noroeste 12 Noroeste 0 -- -- 68
2020-03-11 21:00:00 9.4 7 Noroeste 10 Noroeste 0 -- -- 71
2020-03-11 20:00:00 11.5 9 Noroeste 13 Noroeste 0 -- -- 67
2020-03-11 19:00:00 14.3 0 Calma 12 Oeste 0 -- -- 58
2020-03-11 18:00:00 18.2 12 Oeste 17 Sudeste 0 -- -- 44
2020-03-11 17:00:00 19.8 9 Sudeste 17 Sudeste 0 -- -- 45
2020-03-11 16:00:00 19.5 11 Sudeste 23 Sudeste 0 -- -- 45
2020-03-11 15:00:00 20.7 10 Este 27 Norte 0 -- -- 40
2020-03-11 14:00:00 21 8 Sudeste 19 Sudeste 0 -- -- 35
2020-03-11 13:00:00 20.5 10 Oeste 20 Noroeste 0 -- -- 25
2020-03-11 12:00:00 19.6 5 Sudoeste 21 Oeste 0 -- -- 30
2020-03-11 11:00:00 -- -- -- -- -- -- -- -- --
2020-03-11 10:00:00 17.2 6 Noroeste 29 Noroeste 0 -- -- 24
2020-03-11 09:00:00 14.2 18 Noroeste 28 Noroeste 0 -- -- 29
2020-03-11 08:00:00 10.8 5 Noroeste 12 Oeste 0 -- -- 36
2020-03-11 07:00:00 9.4 3 Oeste 9 Noroeste 0 -- -- 38
2020-03-11 06:00:00 8 6 Oeste 14 Oeste 0 -- -- 49
2020-03-11 05:00:00 9.7 6 Oeste 22 Noroeste 0 -- -- 46
2020-03-11 04:00:00 12.4 12 Noroeste 18 Noroeste 0 -- -- 38
2020-03-11 03:00:00 11.5 6 Noroeste 12 Oeste 0 -- -- 45
2020-03-11 02:00:00 11.1 5 Sudoeste 12 Sudoeste 0 -- -- 49
2020-03-11 01:00:00 9.6 8 Este 12 Este 0 -- -- 59
2020-03-11 00:00:00 9 3 Noroeste 22 Oeste 0 -- -- 63